createdAt,value
2022-11-24T00:00:33.156Z,85
2022-11-24T00:05:34.433Z,85
2022-11-24T00:10:36.280Z,84
2022-11-24T00:15:37.823Z,84
2022-11-24T00:20:39.923Z,84
2022-11-24T00:25:41.949Z,84
2022-11-24T00:30:44.292Z,83
2022-11-24T00:35:45.779Z,82
2022-11-24T00:40:47.242Z,83
2022-11-24T00:45:48.981Z,82
2022-11-24T00:50:50.464Z,82
2022-11-24T00:55:52.074Z,82
2022-11-24T01:00:54.131Z,82
2022-11-24T01:05:55.560Z,81
2022-11-24T01:20:59.617Z,81
2022-11-24T01:41:06.576Z,81
2022-11-24T01:46:07.963Z,80
2022-11-24T01:56:11.292Z,80
2022-11-24T02:01:13.030Z,80
2022-11-24T02:06:15.039Z,80
2022-11-24T02:11:16.607Z,80
2022-11-24T02:16:18.489Z,80
2022-11-24T02:21:20.048Z,79
2022-11-24T02:26:21.476Z,80
2022-11-24T02:31:23.677Z,79
2022-11-24T02:36:25.216Z,79
2022-11-24T02:41:27.064Z,80
2022-11-24T02:46:28.628Z,79
2022-11-24T02:51:29.949Z,79
2022-11-24T02:56:32.031Z,79
2022-11-24T03:01:34.272Z,79
2022-11-24T03:06:35.601Z,79
2022-11-24T03:11:37.127Z,78
2022-11-24T03:16:39.119Z,79
2022-11-24T03:21:40.828Z,79
2022-11-24T03:26:42.664Z,79
2022-11-24T03:31:44.186Z,79
2022-11-24T03:36:46.164Z,79
2022-11-24T03:41:48.354Z,79
2022-11-24T03:46:50.066Z,79
2022-11-24T03:51:51.439Z,80
2022-11-24T03:56:53.219Z,80
2022-11-24T04:01:54.576Z,80
2022-11-24T04:06:56.490Z,79
2022-11-24T04:11:58.245Z,80
2022-11-24T04:16:59.976Z,80
2022-11-24T04:22:01.692Z,80
2022-11-24T04:27:03.137Z,80
2022-11-24T04:32:04.851Z,80
2022-11-24T04:37:06.452Z,80
2022-11-24T04:42:08.457Z,80
2022-11-24T04:47:09.904Z,80
2022-11-24T04:52:11.455Z,80
2022-11-24T04:57:12.845Z,80
2022-11-24T05:02:14.532Z,80
2022-11-24T05:07:18.609Z,80
2022-11-24T05:12:17.646Z,80
2022-11-24T05:17:19.413Z,79
2022-11-24T05:22:21.228Z,80
2022-11-24T05:27:23.371Z,79
2022-11-24T05:32:25.173Z,79
2022-11-24T05:37:26.570Z,79
2022-11-24T05:42:28.412Z,80
2022-11-24T05:47:30.511Z,80
2022-11-24T05:52:31.688Z,79
2022-11-24T05:57:33.843Z,79
2022-11-24T06:02:35.966Z,79
2022-11-24T06:07:37.146Z,79
2022-11-24T06:12:38.486Z,78
2022-11-24T06:17:39.929Z,79
2022-11-24T06:22:41.490Z,78
2022-11-24T06:27:43.523Z,78
2022-11-24T06:32:49.275Z,78
2022-11-24T06:37:47.199Z,77
2022-11-24T06:42:49.186Z,77
2022-11-24T06:47:51.433Z,77
2022-11-24T06:52:53.353Z,77
2022-11-24T06:57:55.018Z,77
2022-11-24T07:02:56.814Z,75
2022-11-24T07:07:58.563Z,75
2022-11-24T07:12:59.807Z,75
2022-11-24T07:18:01.406Z,75
2022-11-24T07:23:03.535Z,78
2022-11-24T07:28:05.066Z,74
2022-11-24T07:33:07.353Z,70
2022-11-24T07:38:08.735Z,67
2022-11-24T07:43:13.478Z,66
2022-11-24T07:48:12.249Z,66
2022-11-24T07:53:13.544Z,64
2022-11-24T07:58:15.260Z,63
2022-11-24T08:03:16.592Z,62
2022-11-24T08:08:18.544Z,60
2022-11-24T08:13:20.376Z,56
2022-11-24T08:18:22.120Z,57
2022-11-24T08:23:23.952Z,56
2022-11-24T08:28:25.418Z,55
2022-11-24T08:33:27.619Z,53
2022-11-24T08:38:28.794Z,53
2022-11-24T08:43:30.560Z,52
2022-11-24T08:48:32.302Z,54
2022-11-24T08:53:33.863Z,54
2022-11-24T08:58:35.840Z,54
2022-11-24T09:03:37.355Z,54
2022-11-24T09:08:39.199Z,52
2022-11-24T09:13:40.802Z,52
2022-11-24T09:18:42.959Z,51
2022-11-24T09:23:44.280Z,51
2022-11-24T09:28:46.140Z,51
2022-11-24T09:33:48.293Z,50
2022-11-24T09:38:49.656Z,50
2022-11-24T09:43:51.776Z,49
2022-11-24T09:48:53.345Z,49
2022-11-24T09:53:55.220Z,49
2022-11-24T09:58:56.831Z,50
2022-11-24T10:04:02.730Z,51
2022-11-24T10:09:00.288Z,52
2022-11-24T10:14:01.898Z,53
2022-11-24T10:19:03.838Z,54
2022-11-24T10:24:05.317Z,55
2022-11-24T10:29:06.841Z,57
2022-11-24T10:34:08.403Z,61
2022-11-24T10:39:09.891Z,62
2022-11-24T10:44:11.099Z,64
2022-11-24T10:49:12.882Z,64
2022-11-24T10:54:14.555Z,66
2022-11-24T10:59:16.216Z,67
2022-11-24T11:04:17.510Z,67
2022-11-24T11:09:18.784Z,67
2022-11-24T11:14:20.638Z,68
2022-11-24T11:19:47.154Z,68
2022-11-24T11:24:23.968Z,68
2022-11-24T11:34:30.255Z,68
2022-11-24T11:39:29.532Z,68
2022-11-24T11:44:31.315Z,68
2022-11-24T11:49:32.894Z,68
2022-11-24T11:54:35.230Z,69
2022-11-24T11:59:36.270Z,70
2022-11-24T12:04:37.610Z,70
2022-11-24T12:09:39.164Z,70
2022-11-24T12:14:40.850Z,70
2022-11-24T12:19:48.435Z,70
2022-11-24T12:24:49.848Z,69
2022-11-24T12:29:51.849Z,69
2022-11-24T12:34:53.674Z,67
2022-11-24T12:39:54.658Z,67
2022-11-24T12:44:56.206Z,67
2022-11-24T12:49:58.040Z,67
2022-11-24T12:54:59.769Z,66
2022-11-24T13:00:01.944Z,66
2022-11-24T13:05:03.645Z,67
2022-11-24T13:10:05.110Z,67
2022-11-24T13:15:06.653Z,68
2022-11-24T13:20:08.069Z,68
2022-11-24T13:25:10.136Z,68
2022-11-24T13:30:11.906Z,69
2022-11-24T13:35:14.106Z,68
2022-11-24T13:40:16.015Z,68
2022-11-24T13:45:17.573Z,68
2022-11-24T13:50:19.157Z,68
2022-11-24T13:55:20.553Z,69
2022-11-24T14:00:22.244Z,70
2022-11-24T14:05:24.498Z,71
2022-11-24T14:10:26.312Z,71
2022-11-24T14:15:28.058Z,71
2022-11-24T14:20:30.222Z,71
2022-11-24T14:25:32.131Z,71
2022-11-24T14:30:33.404Z,71
2022-11-24T14:35:35.241Z,71
2022-11-24T14:40:36.871Z,71
2022-11-24T14:45:38.793Z,72
2022-11-24T14:50:40.135Z,73
2022-11-24T14:55:42.090Z,73
2022-11-24T15:00:43.954Z,73
2022-11-24T15:05:45.847Z,74
2022-11-24T15:10:47.345Z,74
2022-11-24T15:15:48.718Z,74
2022-11-24T15:20:50.253Z,73
2022-11-24T15:25:51.535Z,73
2022-11-24T15:30:52.968Z,73
2022-11-24T16:06:03.940Z,75
2022-11-24T16:11:05.424Z,75
2022-11-24T16:16:06.920Z,76
2022-11-24T16:21:08.607Z,75
2022-11-24T16:36:13.634Z,74
2022-11-24T16:41:15.134Z,76
2022-11-24T16:46:16.618Z,77
2022-11-24T16:51:18.268Z,77
2022-11-24T16:56:20.302Z,77
2022-11-24T17:01:22.252Z,78
2022-11-24T17:06:23.774Z,78
2022-11-24T17:11:25.126Z,78
2022-11-24T17:16:26.963Z,80
2022-11-24T17:21:28.259Z,80
2022-11-24T17:26:30.152Z,80
2022-11-24T17:31:32.120Z,78
2022-11-24T17:36:33.804Z,79
2022-11-24T17:41:35.028Z,78
2022-11-24T17:46:37.047Z,78
2022-11-24T17:51:39.215Z,78
2022-11-24T17:56:41.057Z,78
2022-11-24T18:01:42.673Z,78
2022-11-24T18:06:43.870Z,78
2022-11-24T18:11:45.209Z,78
2022-11-24T18:16:47.016Z,77
2022-11-24T18:21:48.644Z,78
2022-11-24T18:26:49.958Z,78
2022-11-24T18:31:51.371Z,79
2022-11-24T18:36:53.104Z,79
2022-11-24T18:41:54.792Z,80
2022-11-24T18:46:56.801Z,81
2022-11-24T18:51:58.680Z,80
2022-11-24T18:57:03.237Z,81
2022-11-24T19:02:01.542Z,81
2022-11-24T19:07:02.849Z,83
2022-11-24T19:12:04.816Z,82
2022-11-24T19:17:06.676Z,82
2022-11-24T19:22:08.626Z,82
2022-11-24T19:27:10.596Z,82
2022-11-24T19:32:12.345Z,82
2022-11-24T19:37:14.192Z,82
2022-11-24T19:42:15.329Z,83
2022-11-24T19:47:17.044Z,82
2022-11-24T19:52:18.767Z,82
2022-11-24T19:57:20.194Z,82
2022-11-24T20:02:21.631Z,82
2022-11-24T20:07:23.649Z,82
2022-11-24T20:12:25.480Z,82
2022-11-24T20:17:27.313Z,82
2022-11-24T20:22:28.492Z,82
2022-11-24T20:27:29.802Z,82
2022-11-24T20:32:31.708Z,82
2022-11-24T20:37:33.515Z,83
2022-11-24T20:42:34.864Z,83
2022-11-24T20:47:36.703Z,83
2022-11-24T20:52:38.860Z,83
2022-11-24T20:57:40.643Z,83
2022-11-24T21:02:42.686Z,84
2022-11-24T21:07:43.980Z,83
2022-11-24T21:12:45.484Z,83
2022-11-24T21:17:47.170Z,83
2022-11-24T21:22:49.334Z,83
2022-11-24T21:27:50.780Z,84
2022-11-24T21:32:52.676Z,84
2022-11-24T21:37:54.660Z,83
2022-11-24T21:42:56.023Z,82
2022-11-24T21:47:57.744Z,83
2022-11-24T21:53:03.265Z,83
2022-11-24T21:58:01.105Z,83
2022-11-24T22:03:02.283Z,84
2022-11-24T22:08:04.500Z,84
2022-11-24T22:13:06.131Z,83
2022-11-24T22:18:07.363Z,84
2022-11-24T22:23:09.193Z,84
2022-11-24T22:28:10.802Z,84
2022-11-24T22:33:12.551Z,85
2022-11-24T22:38:14.684Z,84
2022-11-24T22:43:20.185Z,85
2022-11-24T22:48:17.930Z,85
2022-11-24T22:53:20.164Z,84
2022-11-24T22:58:21.875Z,84
2022-11-24T23:13:27.240Z,84
2022-11-24T23:18:29.242Z,84
2022-11-24T23:23:31.119Z,83
2022-11-24T23:28:32.655Z,85
2022-11-24T23:33:34.486Z,84
2022-11-24T23:38:36.181Z,84
2022-11-24T23:43:38.002Z,84
2022-11-24T23:48:40.125Z,84
2022-11-24T23:53:42.273Z,84
2022-11-24T23:58:44.280Z,84
